Saint Petersburg Beach, Florida
Current Conditions -  °F | °C
As of 1:53 PM on Friday 31 Oct 2014 (Local Time) from KSPG Reporting Station
Clear Clear  
Wind Chill: 73°   Ceiling: Unl
Heat Index: 73°   Visibility: 10mi
Dew Point: 56°   Wind: 15mph
Humidity: 55%   Direction: 360°N
Pressure: 29.85"   Gusts: 22mph
Location:  27.7254°N, 82.7422°W
Report Text: KSPG 311753Z 36013G19KT 10SM CLR 23/13 A2985 RMK AO2 SLP107 T02280133 10233 20206 58017
Loading
Personal Weather Stations






























Interactive Weather Map
Tropical Storm Tracking
New forecast layout! Learn more

10-Day Weather Forecast

Advertisements
Track Severe Weather on mobile